Time;durP1;ratioP1;P1;durP2;ratioP2;P2;SDS_P1;SDS_P2;PMS_P1;PMS_P2;Temp;Humidity;BMP_temperature;BMP_pressure;BME280_temperature;BME280_humidity;BME280_pressure;Samples;Min_cycle;Max_cycle;Signal;HPM_P1;HPM_P2
2023/01/17 00:02:07;;;;;;;4.03;2.40;;;;;;;7.28;47.60;97736.41;7392883;19;20002;-62
2023/01/17 00:10:07;;;;;;;4.85;2.78;;;;;;;7.27;47.88;97737.56;7392112;19;19995;-62
2023/01/17 00:12:34;;;;;;;5.18;2.65;;;;;;;7.37;47.69;97735.97;7391057;19;20008;-62
2023/01/17 00:15:00;;;;;;;5.57;3.00;;;;;;;7.16;48.09;97736.81;7392542;19;20002;-62
2023/01/17 00:17:27;;;;;;;5.60;2.90;;;;;;;7.16;48.24;97736.81;7391188;19;19998;-62
2023/01/17 01:35:04;;;;;;;7.95;4.38;;;;;;;6.95;48.70;97781.81;7397171;19;20356;-54
2023/01/17 01:37:30;;;;;;;8.38;3.97;;;;;;;6.94;48.59;97780.25;7395797;19;20084;-55
2023/01/17 01:39:56;;;;;;;7.90;4.28;;;;;;;6.73;49.17;97782.97;7394731;19;20013;-54
2023/01/17 01:42:22;;;;;;;9.25;4.68;;;;;;;6.75;49.07;97786.09;7396342;19;20336;-52
2023/01/17 01:44:51;;;;;;;9.75;5.18;;;;;;;6.61;49.19;97793.06;7397074;19;20086;-49
2023/01/17 01:47:29;;;;;;;9.10;4.70;;;;;;;6.63;49.24;97793.44;7396303;19;20475;-53
2023/01/17 01:49:58;;;;;;;9.80;4.75;;;;;;;6.62;49.00;97791.13;7396550;19;20002;-53
2023/01/17 01:52:28;;;;;;;8.65;4.45;;;;;;;6.47;49.06;97796.53;7395598;19;20338;-54
2023/01/17 01:54:59;;;;;;;9.88;4.72;;;;;;;6.53;48.83;97788.00;7395370;19;20007;-51
2023/01/17 01:57:29;;;;;;;8.82;4.57;;;;;;;6.68;48.51;97790.34;7394619;19;20332;-54
2023/01/17 02:00:00;;;;;;;10.30;5.03;;;;;;;6.65;48.71;97793.81;7396680;19;20396;-56
2023/01/17 02:02:29;;;;;;;11.18;5.65;;;;;;;6.72;48.25;97789.56;7394907;19;19995;-56
2023/01/17 02:04:56;;;;;;;12.48;5.68;;;;;;;6.82;48.32;97794.22;7397054;19;20011;-55
2023/01/17 02:07:30;;;;;;;10.13;5.28;;;;;;;6.68;48.55;97789.59;7395110;19;20002;-55
2023/01/17 02:09:57;;;;;;;10.68;5.28;;;;;;;6.47;49.14;97796.53;7395763;19;20019;-55
2023/01/17 02:12:24;;;;;;;11.65;5.82;;;;;;;6.65;48.72;97801.19;7396455;19;19999;-54
2023/01/17 02:14:50;;;;;;;12.38;5.60;;;;;;;6.53;48.84;97805.06;7395446;19;19999;-56
2023/01/17 02:17:19;;;;;;;13.95;6.15;;;;;;;6.56;48.74;97800.78;7393462;19;20006;-57
2023/01/17 02:20:22;;;;;;;11.45;5.28;;;;;;;6.48;49.06;97802.75;7396951;19;19999;-55
2023/01/17 02:23:15;;;;;;;11.02;5.60;;;;;;;6.45;48.98;97803.50;7393292;19;19998;-56
2023/01/17 02:26:12;;;;;;;9.75;5.03;;;;;;;6.51;49.10;97807.41;7396495;19;20005;-57
2023/01/17 02:29:10;;;;;;;10.50;5.40;;;;;;;6.68;48.82;97806.59;7396569;19;20006;-56
2023/01/17 02:31:58;;;;;;;9.98;4.90;;;;;;;6.53;48.85;97815.91;7390962;19;20470;-57
2023/01/17 02:34:34;;;;;;;8.93;4.63;;;;;;;6.59;48.86;97811.63;7395275;19;20376;-57
2023/01/17 02:37:10;;;;;;;9.80;4.97;;;;;;;6.63;48.78;97820.56;7395041;19;20078;-57
2023/01/17 02:39:44;;;;;;;9.88;4.72;;;;;;;6.66;48.99;97827.13;7393746;19;20010;-57
2023/01/17 02:42:13;;;;;;;;;;;;;;;6.62;49.92;97820.94;7394327;19;20014;-56
2023/01/17 02:44:41;;;;;;;8.50;3.90;;;;;;;6.44;49.49;97829.03;7396551;19;19915;-56
2023/01/17 02:47:26;;;;;;;8.15;3.70;;;;;;;6.42;50.14;97818.59;7394557;19;20002;-56
2023/01/17 02:50:09;;;;;;;6.57;3.28;;;;;;;6.41;49.99;97832.53;7394559;19;20006;-56
2023/01/17 02:52:37;;;;;;;6.43;3.22;;;;;;;6.59;49.33;97830.59;7393196;19;20013;-56
2023/01/17 02:55:39;;;;;;;8.10;3.30;;;;;;;6.69;49.36;97829.06;7395384;19;20026;-55
2023/01/17 02:58:27;;;;;;;5.70;2.85;;;;;;;6.53;49.66;97834.06;7391419;19;20030;-55
2023/01/17 03:01:12;;;;;;;6.20;2.85;;;;;;;6.55;49.55;97843.38;7394671;19;20006;-57
2023/01/17 03:04:13;;;;;;;6.93;3.00;;;;;;;6.52;49.70;97846.88;7393255;19;20003;-57
2023/01/17 03:06:47;;;;;;;3.33;1.90;;;;;;;6.43;49.50;97854.59;7390881;19;19999;-57
2023/01/17 03:09:15;;;;;;;3.03;1.40;;;;;;;6.50;49.29;97855.38;7393183;19;19998;-56
2023/01/17 03:11:42;;;;;;;3.00;1.40;;;;;;;6.46;49.33;97853.81;7392431;19;20002;-57
2023/01/17 03:14:08;;;;;;;2.33;1.42;;;;;;;6.56;49.25;97860.41;7394418;19;20067;-56
2023/01/17 03:16:34;;;;;;;2.08;1.25;;;;;;;6.49;49.16;97861.97;7393634;19;19990;-56
2023/01/17 03:19:00;;;;;;;2.03;1.13;;;;;;;6.21;50.08;97870.81;7394576;19;20013;-56
2023/01/17 03:21:25;;;;;;;2.28;1.15;;;;;;;6.21;49.92;97870.81;7392559;19;20054;-56
2023/01/17 03:23:51;;;;;;;1.77;1.00;;;;;;;6.26;49.63;97867.72;7394430;19;20542;-55
2023/01/17 03:26:17;;;;;;;2.53;1.00;;;;;;;6.42;49.41;97880.13;7394411;19;20058;-55
2023/01/17 03:28:43;;;;;;;2.50;0.80;;;;;;;6.18;50.13;97881.63;7393758;19;20002;-55
2023/01/17 03:31:16;;;;;;;1.65;0.80;;;;;;;6.34;49.64;97884.00;7390314;19;20027;-55
2023/01/17 03:33:42;;;;;;;1.35;0.70;;;;;;;6.13;50.27;97888.19;7394162;19;20010;-56
2023/01/17 03:36:08;;;;;;;1.90;0.60;;;;;;;5.99;50.65;97891.63;7393847;19;20010;-55
2023/01/17 03:38:36;;;;;;;1.10;0.65;;;;;;;6.27;49.94;97901.78;7390920;19;19998;-57
2023/01/17 03:41:02;;;;;;;1.60;0.70;;;;;;;6.23;49.98;97895.56;7390424;19;19998;-57
2023/01/17 03:43:28;;;;;;;1.85;0.80;;;;;;;6.23;50.03;97903.69;7392252;19;19999;-56
2023/01/17 03:46:04;;;;;;;1.38;0.60;;;;;;;6.38;49.97;97907.22;7391621;19;20083;-57
2023/01/17 03:48:30;;;;;;;0.50;0.40;;;;;;;6.47;49.39;97909.56;7392910;19;19991;-57
2023/01/17 03:50:56;;;;;;;1.98;0.50;;;;;;;6.27;50.06;97923.44;7391074;19;20341;-57
2023/01/17 03:53:29;;;;;;;0.52;0.40;;;;;;;5.96;50.39;97922.19;7391187;19;20001;-56
2023/01/17 03:55:54;;;;;;;0.95;0.52;;;;;;;6.07;50.37;97930.34;7392868;19;20503;-56
2023/01/17 03:58:20;;;;;;;4.28;1.10;;;;;;;6.18;49.94;97936.56;7390058;19;19995;-56
2023/01/17 04:00:46;;;;;;;8.43;1.63;;;;;;;5.90;50.31;97940.69;7390024;19;20007;-56
2023/01/17 04:03:12;;;;;;;2.95;1.00;;;;;;;6.00;49.81;97947.31;7392645;19;20470;-56
2023/01/17 04:05:37;;;;;;;5.22;1.25;;;;;;;5.92;49.90;97943.03;7391767;19;20003;-56
2023/01/17 04:08:05;;;;;;;7.38;1.90;;;;;;;6.00;49.55;97946.56;7391544;19;20332;-56
2023/01/17 04:10:31;;;;;;;6.95;2.00;;;;;;;5.86;50.07;97955.38;7392051;19;20328;-56
2023/01/17 04:12:56;;;;;;;5.35;1.55;;;;;;;5.93;49.79;97969.72;7392135;19;20002;-56
2023/01/17 04:15:22;;;;;;;6.35;1.60;;;;;;;6.05;49.55;97957.78;7392184;19;19998;-56
2023/01/17 04:17:48;;;;;;;7.55;2.10;;;;;;;5.68;50.26;97971.53;7389153;19;20062;-53
2023/01/17 04:20:29;;;;;;;5.60;1.35;;;;;;;5.84;49.92;97972.00;7390451;19;20323;-55
2023/01/17 04:22:56;;;;;;;6.05;1.70;;;;;;;5.63;50.20;97994.28;7393115;19;20020;-55
2023/01/17 04:25:22;;;;;;;7.55;2.15;;;;;;;5.50;50.63;98007.34;7391964;19;19999;-55
2023/01/17 04:27:47;;;;;;;6.15;2.10;;;;;;;5.44;50.73;98002.66;7391847;19;20006;-53
2023/01/17 04:30:13;;;;;;;9.50;2.35;;;;;;;5.56;50.67;98013.19;7390374;19;19998;-54
2023/01/17 04:32:39;;;;;;;6.78;1.63;;;;;;;5.77;50.19;98020.66;7389932;19;20366;-55
2023/01/17 04:35:05;;;;;;;6.55;2.05;;;;;;;5.62;50.60;98013.59;7391615;19;19996;-55
2023/01/17 04:37:32;;;;;;;9.85;1.98;;;;;;;5.63;50.84;98021.34;7390104;19;20075;-54
2023/01/17 04:39:58;;;;;;;5.22;1.20;;;;;;;5.46;50.68;98014.66;7391277;19;19999;-55
2023/01/17 04:42:23;;;;;;;8.65;1.50;;;;;;;5.83;49.95;98021.88;7390735;19;19999;-55
2023/01/17 04:44:49;;;;;;;4.95;1.60;;;;;;;5.73;49.92;98026.06;7390638;19;20010;-55
2023/01/17 04:47:18;;;;;;;7.22;1.30;;;;;;;5.46;50.44;98044.41;7390634;19;20795;-56
2023/01/17 04:49:43;;;;;;;6.47;1.35;;;;;;;5.66;50.11;98030.63;7389205;19;20036;-57
2023/01/17 04:52:09;;;;;;;4.10;1.30;;;;;;;5.44;50.14;98049.44;7391140;19;20364;-57
2023/01/17 04:54:35;;;;;;;7.20;1.90;;;;;;;5.63;49.78;98045.72;7389353;19;20026;-56
2023/01/17 04:57:01;;;;;;;11.45;1.38;;;;;;;5.81;49.14;98053.97;7389532;19;20007;-56
2023/01/17 04:59:27;;;;;;;9.10;1.95;;;;;;;5.72;49.26;98048.09;7391198;19;20459;-57
2023/01/17 05:01:52;;;;;;;10.05;1.70;;;;;;;5.73;49.46;98068.59;7388993;19;19999;-55
2023/01/17 05:04:18;;;;;;;7.68;1.63;;;;;;;5.76;49.63;98081.38;7388381;19;20014;-56
2023/01/17 05:06:44;;;;;;;14.23;2.38;;;;;;;5.86;49.38;98082.59;7390758;19;20062;-56
2023/01/17 05:09:10;;;;;;;7.05;1.40;;;;;;;5.66;49.46;98106.41;7389557;19;20003;-55
2023/01/17 05:11:36;;;;;;;6.35;1.50;;;;;;;5.72;49.18;98097.56;7388775;19;20002;-55
2023/01/17 05:14:01;;;;;;;8.82;2.05;;;;;;;5.91;48.99;98101.22;7388512;19;20062;-53
2023/01/17 05:16:27;;;;;;;6.70;1.13;;;;;;;5.96;48.87;98105.50;7390983;19;20012;-55
2023/01/17 05:18:53;;;;;;;3.63;0.77;;;;;;;5.78;49.37;98105.38;7388547;19;19987;-55
2023/01/17 05:21:20;;;;;;;4.95;1.00;;;;;;;5.95;48.62;98118.25;7387969;19;20069;-55
2023/01/17 05:23:46;;;;;;;6.78;1.67;;;;;;;5.99;48.53;98124.47;7389787;19;20005;-55
2023/01/17 05:26:12;;;;;;;7.88;2.10;;;;;;;5.94;48.31;98119.41;7389701;19;20054;-55
2023/01/17 05:28:38;;;;;;;10.02;2.20;;;;;;;5.76;48.61;98132.81;7388372;19;19994;-55
2023/01/17 05:31:04;;;;;;;8.77;1.77;;;;;;;5.60;48.74;98141.16;7387780;19;20003;-56
2023/01/17 05:33:29;;;;;;;9.68;1.90;;;;;;;5.71;48.61;98154.81;7389828;19;20018;-54
2023/01/17 05:35:55;;;;;;;8.15;1.85;;;;;;;5.66;48.44;98174.88;7389230;19;20003;-55
2023/01/17 05:38:23;;;;;;;9.07;2.30;;;;;;;5.44;48.73;98170.38;7387317;19;20082;-56
2023/01/17 05:40:48;;;;;;;10.48;2.20;;;;;;;5.56;48.50;98179.00;7386935;19;20009;-54
2023/01/17 05:43:14;;;;;;;10.43;1.75;;;;;;;5.71;48.09;98200.81;7388532;19;20003;-55
2023/01/17 05:45:40;;;;;;;10.73;3.05;;;;;;;5.77;47.93;98207.44;7389604;19;20006;-54
2023/01/17 05:48:06;;;;;;;12.75;2.55;;;;;;;5.73;47.70;98214.75;7387262;19;20003;-54
2023/01/17 05:50:35;;;;;;;9.43;2.03;;;;;;;5.87;47.56;98209.47;7388605;19;20437;-54
2023/01/17 05:53:09;;;;;;;9.80;2.40;;;;;;;5.83;47.59;98208.66;7390608;19;20018;-55
2023/01/17 05:55:35;;;;;;;12.70;2.70;;;;;;;5.89;47.31;98219.91;7387592;19;20014;-55
2023/01/17 05:58:01;;;;;;;6.10;1.88;;;;;;;5.76;47.51;98214.00;7394740;19;19995;-55
2023/01/17 06:00:28;;;;;;;7.25;1.13;;;;;;;5.94;47.30;98227.69;7395116;19;19998;-55
2023/01/17 06:02:55;;;;;;;7.97;1.30;;;;;;;5.73;47.36;98223.66;7396425;19;19998;-55
2023/01/17 06:05:22;;;;;;;5.80;1.08;;;;;;;6.08;46.81;98232.50;7394596;19;20070;-55
2023/01/17 06:07:48;;;;;;;7.30;1.20;;;;;;;6.08;46.97;98238.69;7393760;19;19994;-54
2023/01/17 06:10:16;;;;;;;5.45;1.10;;;;;;;6.11;47.00;98243.34;7396310;19;20084;-53
2023/01/17 06:12:43;;;;;;;1.90;0.50;;;;;;;5.78;47.55;98243.41;7396489;19;20013;-54
2023/01/17 06:15:11;;;;;;;5.05;1.10;;;;;;;5.67;47.89;98243.28;7396838;19;20014;-53
2023/01/17 06:17:37;;;;;;;3.08;0.80;;;;;;;5.70;47.86;98245.25;7394596;19;20002;-53
2023/01/17 06:20:04;;;;;;;2.10;0.70;;;;;;;5.43;48.38;98256.16;7395880;19;20039;-57
2023/01/17 06:22:30;;;;;;;6.05;1.10;;;;;;;5.35;48.45;98255.28;7395873;19;20003;-56
2023/01/17 06:24:56;;;;;;;5.10;0.95;;;;;;;5.41;48.33;98255.78;7396571;19;20493;-57
2023/01/17 06:27:21;;;;;;;4.00;0.80;;;;;;;5.55;48.09;98264.03;7393476;19;19998;-57
2023/01/17 06:29:47;;;;;;;3.92;1.05;;;;;;;5.42;48.17;98272.78;7395572;19;20072;-57
2023/01/17 06:32:13;;;;;;;3.90;1.00;;;;;;;5.23;48.77;98270.97;7393003;19;20007;-57
2023/01/17 06:34:39;;;;;;;9.63;1.25;;;;;;;5.19;48.73;98273.63;7395690;19;20077;-57
2023/01/17 06:37:05;;;;;;;5.82;1.15;;;;;;;5.16;48.87;98288.66;7392360;19;20023;-57
2023/01/17 06:39:31;;;;;;;5.20;1.08;;;;;;;5.26;48.80;98298.06;7394563;19;20007;-57
2023/01/17 06:41:57;;;;;;;5.75;1.10;;;;;;;5.36;48.29;98296.66;7398148;19;20404;-57
2023/01/17 06:44:25;;;;;;;7.80;1.25;;;;;;;5.38;48.26;98299.78;7397875;19;19995;-56
2023/01/17 06:46:51;;;;;;;5.85;1.40;;;;;;;5.41;48.17;98299.06;7397324;19;20002;-56
2023/01/17 06:49:17;;;;;;;5.82;0.88;;;;;;;5.31;48.17;98305.06;7397454;19;20003;-57
2023/01/17 06:51:43;;;;;;;6.05;1.30;;;;;;;5.23;48.47;98314.25;7392134;19;19991;-57
2023/01/17 06:54:09;;;;;;;6.35;1.02;;;;;;;5.28;48.47;98319.34;7391828;19;19995;-57
2023/01/17 06:56:35;;;;;;;6.95;1.05;;;;;;;5.40;48.14;98326.47;7319206;19;82128;-57
2023/01/17 06:59:01;;;;;;;10.13;0.98;;;;;;;5.41;48.08;98326.09;7393610;19;20003;-59
2023/01/17 07:01:27;;;;;;;6.15;0.93;;;;;;;5.62;48.08;98328.28;7392154;19;19999;-59
2023/01/17 07:03:53;;;;;;;7.88;1.10;;;;;;;5.50;47.81;98339.34;7394293;19;20454;-59
2023/01/17 07:06:19;;;;;;;4.60;0.85;;;;;;;5.38;48.06;98345.78;7393903;19;20023;-59
2023/01/17 07:08:46;;;;;;;7.75;1.30;;;;;;;5.29;48.37;98342.50;7392702;19;19998;-58
2023/01/17 07:11:12;;;;;;;5.40;1.10;;;;;;;5.22;48.36;98353.25;7393225;19;19995;-58
2023/01/17 07:13:38;;;;;;;6.47;1.00;;;;;;;5.31;48.26;98357.25;7394368;19;20294;-58
2023/01/17 07:16:06;;;;;;;5.43;1.13;;;;;;;5.30;48.30;98366.50;7393805;19;20416;-58
2023/01/17 07:18:33;;;;;;;8.32;1.30;;;;;;;5.18;48.52;98364.00;7392694;19;20002;-59
2023/01/17 07:20:58;;;;;;;5.82;0.90;;;;;;;5.29;48.22;98362.25;7394886;19;19994;-58
2023/01/17 07:23:24;;;;;;;7.03;0.98;;;;;;;5.05;48.81;98370.75;7391847;19;19994;-59
2023/01/17 07:25:51;;;;;;;7.70;0.98;;;;;;;5.26;48.48;98364.91;7393335;19;20001;-59
2023/01/17 07:28:17;;;;;;;6.78;1.63;;;;;;;5.33;48.30;98381.25;7393469;19;19994;-59
2023/01/17 07:30:43;;;;;;;5.70;1.10;;;;;;;5.04;49.16;98386.22;7391715;19;20522;-58
2023/01/17 07:33:09;;;;;;;4.93;1.20;;;;;;;5.13;48.92;98373.19;7392945;19;20018;-58
2023/01/17 07:35:35;;;;;;;8.82;1.40;;;;;;;5.28;48.36;98370.72;7393634;19;20002;-59
2023/01/17 07:38:02;;;;;;;5.47;1.23;;;;;;;5.23;48.38;98379.16;7391282;19;20015;-59
2023/01/17 07:40:27;;;;;;;8.20;1.60;;;;;;;5.16;48.48;98377.88;7392159;19;20005;-59
2023/01/17 07:43:19;;;;;;;5.55;1.20;;;;;;;5.18;48.33;98383.72;7392330;19;20003;-59
2023/01/17 07:45:49;;;;;;;10.02;1.75;;;;;;;5.06;48.65;98388.56;7389732;19;20356;-63
2023/01/17 07:48:20;;;;;;;8.85;1.23;;;;;;;5.16;48.44;98380.59;7391542;19;19998;-64
2023/01/17 07:50:55;;;;;;;7.45;2.20;;;;;;;5.34;47.92;98391.72;7393125;19;20006;-64
2023/01/17 07:53:30;;;;;;;8.35;1.70;;;;;;;5.31;47.91;98381.59;7392633;19;20101;-63
2023/01/17 07:56:00;;;;;;;8.82;1.33;;;;;;;5.41;47.63;98393.75;7393031;19;20002;-64
2023/01/17 07:58:34;;;;;;;8.45;1.70;;;;;;;5.42;47.34;98395.28;7390343;19;20017;-64
2023/01/17 08:01:06;;;;;;;6.45;1.17;;;;;;;5.30;47.64;98409.00;7391043;19;20003;-64
2023/01/17 08:03:35;;;;;;;8.10;1.95;;;;;;;5.26;47.50;98408.19;7392354;19;20002;-63
2023/01/17 08:06:01;;;;;;;8.68;1.55;;;;;;;5.24;47.50;98415.84;7391171;19;20058;-64
2023/01/17 08:08:28;;;;;;;8.38;1.48;;;;;;;5.16;47.64;98428.50;7392674;19;19999;-63
2023/01/17 08:10:54;;;;;;;9.88;1.30;;;;;;;5.14;47.40;98426.16;7391580;19;19998;-63
2023/01/17 08:13:23;;;;;;;8.00;1.50;;;;;;;5.24;47.00;98421.25;7392346;19;20404;-62
2023/01/17 08:15:49;;;;;;;7.53;1.40;;;;;;;5.24;46.97;98421.25;7390476;19;20350;-62
2023/01/17 08:18:16;;;;;;;10.05;1.67;;;;;;;5.27;46.76;98425.94;7388983;19;20408;-63
2023/01/17 08:20:43;;;;;;;6.53;1.25;;;;;;;5.32;46.56;98434.59;7391691;19;19999;-64
2023/01/17 08:23:10;;;;;;;10.10;1.38;;;;;;;5.42;46.25;98430.44;7392654;19;19999;-63
2023/01/17 08:25:36;;;;;;;7.72;1.45;;;;;;;5.29;46.55;98437.97;7392701;19;20002;-63
2023/01/17 08:28:01;;;;;;;5.78;1.23;;;;;;;5.23;46.36;98446.75;7391304;19;20022;-63
2023/01/17 08:30:28;;;;;;;5.35;1.00;;;;;;;5.29;46.33;98453.41;7391991;19;19999;-62
2023/01/17 08:32:54;;;;;;;6.35;1.45;;;;;;;5.20;46.04;98451.72;7391602;19;20001;-63
2023/01/17 08:35:20;;;;;;;6.75;1.00;;;;;;;5.27;46.03;98453.78;7388399;19;19995;-63
2023/01/17 08:37:56;;;;;;;8.15;1.20;;;;;;;5.28;46.04;98459.97;7388182;19;20023;-62
2023/01/17 08:40:23;;;;;;;8.00;1.30;;;;;;;5.36;45.56;98461.69;7391503;19;20002;-62
2023/01/17 08:42:57;;;;;;;8.30;1.30;;;;;;;5.16;45.99;98461.72;7390321;19;20013;-63
2023/01/17 08:45:29;;;;;;;;;;;;;;;5.09;45.57;98464.31;7389870;19;20459;-63
2023/01/17 08:47:57;;;;;;;9.90;1.25;;;;;;;5.31;45.64;98461.97;7390259;19;19922;-64
2023/01/17 08:50:24;;;;;;;7.53;1.13;;;;;;;5.31;45.57;98461.97;7390779;19;20005;-64
2023/01/17 08:52:52;;;;;;;6.78;0.85;;;;;;;5.32;45.50;98466.25;7391584;19;20473;-62
2023/01/17 08:55:18;;;;;;;11.20;1.65;;;;;;;5.18;45.90;98467.53;7389687;19;20002;-63
2023/01/17 08:57:43;;;;;;;5.60;1.33;;;;;;;5.16;45.62;98479.88;7389371;19;20041;-62
2023/01/17 09:00:10;;;;;;;5.63;0.90;;;;;;;5.33;45.42;98489.47;7390601;19;19999;-62
2023/01/17 09:02:35;;;;;;;6.95;0.90;;;;;;;5.25;45.25;98495.88;7391125;19;20034;-63
2023/01/17 09:05:01;;;;;;;10.35;1.20;;;;;;;5.28;45.28;98490.50;7389906;19;20031;-63
2023/01/17 09:07:27;;;;;;;5.30;1.10;;;;;;;5.14;45.55;98492.97;7390498;19;19998;-63
2023/01/17 09:09:53;;;;;;;8.27;1.00;;;;;;;5.06;45.74;98494.00;7390140;19;20065;-62
2023/01/17 09:12:21;;;;;;;3.80;1.40;;;;;;;5.12;45.39;98496.06;7391055;19;20023;-63
2023/01/17 09:14:47;;;;;;;5.57;1.15;;;;;;;5.08;45.47;98494.41;7386834;19;19995;-63
2023/01/17 09:17:14;;;;;;;7.60;1.10;;;;;;;5.14;45.32;98499.16;7388610;19;20470;-63
2023/01/17 09:19:43;;;;;;;9.20;1.85;;;;;;;5.05;45.32;98498.63;7390661;19;19991;-64
2023/01/17 09:22:10;;;;;;;6.05;1.90;;;;;;;5.08;45.24;98500.59;7390370;19;20006;-64
2023/01/17 09:24:36;;;;;;;7.45;1.27;;;;;;;5.14;45.06;98499.16;7389502;19;20007;-61
2023/01/17 09:27:02;;;;;;;4.35;1.35;;;;;;;5.29;44.95;98510.22;7389328;19;20001;-60
2023/01/17 09:29:28;;;;;;;6.32;1.10;;;;;;;5.37;44.67;98511.94;7390299;19;20344;-60
2023/01/17 09:31:55;;;;;;;4.65;1.35;;;;;;;5.40;44.83;98515.84;7397369;19;20058;-60
2023/01/17 09:34:22;;;;;;;7.25;1.05;;;;;;;5.43;44.29;98513.19;7396581;19;20383;-60
2023/01/17 09:36:48;;;;;;;7.25;1.00;;;;;;;5.35;44.52;98525.03;7396619;19;19999;-61
2023/01/17 09:39:14;;;;;;;4.68;1.10;;;;;;;5.44;43.94;98531.00;7397244;19;20020;-61
2023/01/17 09:41:50;;;;;;;3.55;0.70;;;;;;;5.59;43.76;98533.91;7395308;19;20023;-62
2023/01/17 09:44:47;;;;;;;7.10;1.25;;;;;;;5.64;43.36;98541.72;7395690;19;20006;-62
2023/01/17 09:47:36;;;;;;;9.32;1.25;;;;;;;5.60;43.49;98540.91;7396137;19;20005;-63
2023/01/17 09:50:36;;;;;;;5.85;1.33;;;;;;;5.65;43.06;98546.00;7397592;19;20122;-62
2023/01/17 09:53:05;;;;;;;6.47;1.20;;;;;;;5.65;43.48;98554.13;7396595;19;20014;-64
2023/01/17 09:55:41;;;;;;;4.80;1.15;;;;;;;5.84;42.95;98564.88;7397938;19;20022;-63
2023/01/17 09:58:40;;;;;;;4.80;1.00;;;;;;;5.80;42.14;98569.44;7394085;19;20013;-63
2023/01/17 10:01:14;;;;;;;7.40;1.52;;;;;;;5.86;42.76;98576.13;7396251;19;19990;-62
2023/01/17 10:04:21;;;;;;;10.07;1.13;;;;;;;5.79;42.44;98575.22;7396570;19;20009;-63
2023/01/17 10:06:50;;;;;;;11.52;1.45;;;;;;;5.68;43.25;98569.66;7397264;19;20320;-63
2023/01/17 10:09:24;;;;;;;5.05;1.08;;;;;;;5.90;42.75;98576.16;7394470;19;20005;-62
2023/01/17 10:12:11;;;;;;;8.00;0.93;;;;;;;5.90;42.69;98581.59;7396846;19;19998;-63
2023/01/17 10:14:49;;;;;;;5.75;1.10;;;;;;;5.87;42.46;98583.06;7394253;19;20002;-63
2023/01/17 10:17:37;;;;;;;6.90;1.63;;;;;;;5.52;43.11;98586.81;7394776;19;20003;-63
2023/01/17 10:20:15;;;;;;;8.20;1.15;;;;;;;5.77;42.86;98586.41;7395965;19;19995;-63
2023/01/17 10:23:02;;;;;;;3.78;0.80;;;;;;;5.60;42.87;98586.91;7394673;19;20031;-64
2023/01/17 10:25:45;;;;;;;3.90;0.93;;;;;;;5.63;43.41;98586.97;7395692;19;19995;-63
2023/01/17 10:28:15;;;;;;;8.52;1.17;;;;;;;5.72;42.91;98592.13;7394005;19;20070;-62
2023/01/17 10:30:47;;;;;;;7.55;1.00;;;;;;;5.70;43.30;98592.47;7394519;19;20347;-62
2023/01/17 10:33:35;;;;;;;6.78;1.10;;;;;;;5.87;42.68;98588.50;7394862;19;20475;-62
2023/01/17 10:36:17;;;;;;;5.22;1.20;;;;;;;5.85;42.89;98585.38;7394786;19;20402;-62
2023/01/17 10:38:46;;;;;;;5.20;1.27;;;;;;;5.86;42.93;98589.66;7392733;19;20008;-62
2023/01/17 10:41:33;;;;;;;6.18;0.95;;;;;;;5.66;42.60;98585.44;7395274;19;19995;-62
2023/01/17 10:44:31;;;;;;;3.80;0.90;;;;;;;5.67;43.01;98579.66;7393808;19;20099;-62
2023/01/17 10:47:11;;;;;;;5.80;1.00;;;;;;;5.65;42.94;98581.97;7393041;19;20006;-63
2023/01/17 10:49:43;;;;;;;5.07;1.10;;;;;;;5.94;42.63;98587.81;7395525;19;20007;-64
2023/01/17 10:52:18;;;;;;;5.40;1.00;;;;;;;5.65;43.15;98586.59;7394635;19;20006;-63
2023/01/17 10:55:11;;;;;;;7.80;1.40;;;;;;;5.86;42.57;98591.56;7394106;19;20003;-63
2023/01/17 10:57:43;;;;;;;5.18;1.00;;;;;;;5.80;42.76;98593.81;7392830;19;20006;-63
2023/01/17 11:00:21;;;;;;;5.50;1.00;;;;;;;5.77;43.09;98591.81;7393969;19;20019;-62
2023/01/17 11:02:49;;;;;;;6.35;1.08;;;;;;;5.94;42.79;98587.81;7394084;19;20377;-62
2023/01/17 11:05:27;;;;;;;6.50;1.00;;;;;;;5.81;42.91;98584.56;7392605;19;20030;-62
2023/01/17 11:08:01;;;;;;;5.55;1.02;;;;;;;5.86;43.09;98592.38;7394042;19;20003;-62
2023/01/17 11:10:46;;;;;;;4.00;1.00;;;;;;;5.85;43.10;98581.91;7395127;19;20015;-63
2023/01/17 11:13:33;;;;;;;5.70;0.93;;;;;;;6.12;42.58;98593.50;7393376;19;20328;-63
2023/01/17 11:16:02;;;;;;;4.88;0.90;;;;;;;6.30;42.60;98591.06;7394257;19;20003;-64
2023/01/17 11:18:31;;;;;;;9.85;1.17;;;;;;;6.37;42.25;98590.38;7391502;19;20407;-62
2023/01/17 11:21:12;;;;;;;6.03;1.13;;;;;;;6.31;41.88;98601.53;7394619;19;20040;-63
2023/01/17 11:23:45;;;;;;;6.22;1.00;;;;;;;6.19;42.32;98595.53;7393107;19;20026;-63
2023/01/17 11:26:22;;;;;;;6.73;1.83;;;;;;;6.22;41.76;98602.94;7392818;19;19999;-63
2023/01/17 11:28:48;;;;;;;5.80;1.23;;;;;;;6.12;42.41;98610.53;7392918;19;20010;-63
2023/01/17 11:31:15;;;;;;;7.85;1.50;;;;;;;6.22;42.22;98594.81;7394076;19;20030;-64
2023/01/17 11:33:46;;;;;;;2.67;1.08;;;;;;;6.24;42.16;98608.78;7393264;19;20013;-64
2023/01/17 11:36:27;;;;;;;4.65;0.98;;;;;;;6.31;41.80;98601.53;7394212;19;20005;-64
2023/01/17 11:38:58;;;;;;;4.47;1.00;;;;;;;6.23;42.19;98599.88;7390967;19;20002;-63
2023/01/17 11:41:26;;;;;;;6.82;1.20;;;;;;;6.32;41.98;98607.72;7394100;19;20003;-63
2023/01/17 11:43:52;;;;;;;6.30;1.42;;;;;;;6.28;42.16;98610.38;7392351;19;19998;-63
2023/01/17 11:46:22;;;;;;;8.35;1.10;;;;;;;6.27;42.08;98600.69;7393990;19;20083;-63
2023/01/17 11:48:59;;;;;;;8.00;1.30;;;;;;;6.24;41.81;98603.34;7392238;19;20030;-63
2023/01/17 11:51:30;;;;;;;4.65;1.08;;;;;;;6.42;41.85;98607.09;7393371;19;20006;-63
2023/01/17 11:54:23;;;;;;;6.30;1.00;;;;;;;6.22;42.04;98594.81;7387097;19;20086;-63
2023/01/17 11:56:56;;;;;;;8.18;1.30;;;;;;;6.14;42.51;98599.34;7393164;19;20003;-63
2023/01/17 11:59:22;;;;;;;7.25;1.00;;;;;;;6.07;42.25;98593.81;7391849;19;20040;-63
2023/01/17 12:02:04;;;;;;;4.30;0.90;;;;;;;6.16;41.56;98596.25;7393146;19;20422;-63
2023/01/17 12:04:45;;;;;;;3.65;0.90;;;;;;;6.27;41.78;98586.38;7391351;19;20003;-63
2023/01/17 12:07:35;;;;;;;4.55;1.23;;;;;;;6.45;41.31;98575.78;7392327;19;20003;-63
2023/01/17 12:10:09;;;;;;;4.38;0.90;;;;;;;6.62;41.25;98583.34;7390667;19;20038;-63
2023/01/17 12:19:02;;;;;;;4.53;0.98;;;;;;;6.45;40.75;98592.03;7390495;19;20006;-65
2023/01/17 12:21:56;;;;;;;5.63;1.00;;;;;;;6.36;40.86;98591.50;7392688;19;20002;-65
2023/01/17 12:24:35;;;;;;;4.30;0.95;;;;;;;6.48;40.89;98588.59;7391208;19;19994;-77
2023/01/17 12:27:16;;;;;;;6.97;1.10;;;;;;;6.46;40.33;98594.38;7391106;19;20005;-64
2023/01/17 12:30:11;;;;;;;4.07;1.10;;;;;;;6.38;41.04;98597.38;7391924;19;20542;-64
2023/01/17 12:32:47;;;;;;;4.68;1.00;;;;;;;6.48;40.81;98594.03;7390197;19;19999;-61
2023/01/17 12:35:26;;;;;;;7.43;1.33;;;;;;;6.58;40.90;98598.78;7389109;19;20353;-63
2023/01/17 12:38:03;;;;;;;6.88;1.65;;;;;;;6.86;44.41;98603.78;7390331;19;20003;-59
2023/01/17 12:40:36;;;;;;;5.70;1.10;;;;;;;6.86;43.20;98605.69;7389880;19;20002;-63
2023/01/17 12:43:28;;;;;;;7.82;1.30;;;;;;;7.05;44.84;98611.00;7391451;19;20024;-64
2023/01/17 12:45:55;;;;;;;8.63;1.38;;;;;;;6.92;44.10;98606.97;7389821;19;20013;-63
2023/01/17 12:48:27;;;;;;;3.38;0.93;;;;;;;6.92;45.30;98606.97;7390745;19;20016;-63
2023/01/17 12:50:56;;;;;;;7.28;1.13;;;;;;;6.86;44.00;98609.22;7390184;19;20003;-64
2023/01/17 12:53:43;;;;;;;5.55;1.10;;;;;;;6.93;44.40;98613.97;7389124;19;20022;-63
2023/01/17 12:56:23;;;;;;;5.97;1.42;;;;;;;6.75;44.45;98612.94;7391922;19;20321;-64
2023/01/17 12:59:02;;;;;;;2.63;0.80;;;;;;;6.49;44.02;98612.63;7386638;19;20515;-64
2023/01/17 13:01:31;;;;;;;4.50;1.33;;;;;;;6.48;44.29;98621.13;7391776;19;19999;-64
2023/01/17 13:04:33;;;;;;;5.68;1.02;;;;;;;6.42;44.71;98622.56;7389907;19;20003;-64
2023/01/17 13:06:59;;;;;;;6.78;1.25;;;;;;;6.32;43.34;98619.34;7396315;19;20757;-65
2023/01/17 13:09:32;;;;;;;4.80;0.80;;;;;;;6.50;43.66;98624.25;7397106;19;20054;-64
2023/01/17 13:12:15;;;;;;;7.55;1.05;;;;;;;6.40;42.99;98635.72;7398933;19;20067;-65
2023/01/17 13:14:41;;;;;;;6.45;0.93;;;;;;;6.39;44.15;98629.50;7396023;19;19994;-63
2023/01/17 13:17:33;;;;;;;4.50;1.25;;;;;;;6.40;44.15;98631.06;7397153;19;20002;-63
2023/01/17 13:20:12;;;;;;;6.32;1.17;;;;;;;6.51;43.36;98636.66;7398112;19;19994;-63
2023/01/17 13:22:40;;;;;;;6.68;1.70;;;;;;;6.35;43.96;98639.50;7396259;19;20003;-64
2023/01/17 13:25:25;;;;;;;7.18;1.10;;;;;;;6.39;43.62;98631.44;7395009;19;20075;-64
2023/01/17 13:28:09;;;;;;;7.70;1.63;;;;;;;6.02;43.12;98637.47;7397430;19;19994;-62
2023/01/17 13:31:05;;;;;;;7.00;1.20;;;;;;;6.15;43.93;98636.13;7397071;19;20003;-62